createdAt,value
2022-09-05T00:08:00.480Z,0.23
2022-09-05T00:24:17.088Z,0.00
2022-09-05T00:32:01.171Z,0.00
2022-09-05T00:44:01.566Z,0.00
2022-09-05T00:56:02.039Z,0.00
2022-09-05T01:08:02.493Z,0.00
2022-09-05T01:20:18.370Z,0.00
2022-09-05T01:32:03.426Z,0.00
2022-09-05T01:44:03.813Z,0.00
2022-09-05T01:56:07.048Z,0.00
2022-09-05T02:08:04.747Z,0.00
2022-09-05T02:20:05.207Z,0.22
2022-09-05T02:32:05.659Z,0.01
2022-09-05T02:45:12.666Z,0.01
2022-09-05T02:57:59.893Z,0.01
2022-09-05T03:08:07.024Z,0.00
2022-09-05T03:20:07.470Z,0.17
2022-09-05T03:32:07.951Z,0.62
2022-09-05T03:44:08.383Z,0.45
2022-09-05T03:57:25.099Z,0.17
2022-09-05T04:08:41.954Z,0.00
2022-09-05T04:20:09.775Z,0.00
2022-09-05T04:32:19.027Z,0.15
2022-09-05T04:44:10.650Z,0.72
2022-09-05T04:56:11.107Z,0.00
2022-09-05T05:08:11.757Z,0.00
2022-09-05T05:20:40.235Z,0.03
2022-09-05T05:32:12.437Z,0.83
2022-09-05T05:44:12.950Z,0.35
2022-09-05T05:56:13.368Z,0.40
2022-09-05T06:10:03.795Z,0.00
2022-09-05T06:22:05.833Z,0.00
2022-09-05T06:32:14.769Z,0.00
2022-09-05T06:44:15.236Z,0.23
2022-09-05T06:56:25.587Z,0.05
2022-09-05T07:08:33.111Z,0.00
2022-09-05T07:20:16.563Z,0.08
2022-09-05T07:32:19.268Z,0.33
2022-09-05T07:44:17.468Z,0.78
2022-09-05T07:56:49.253Z,1.35
2022-09-05T08:08:18.346Z,1.52
2022-09-05T08:20:18.827Z,1.88
2022-09-05T08:32:19.296Z,1.98
2022-09-05T08:46:40.507Z,1.76
2022-09-05T08:56:20.724Z,1.92
2022-09-05T09:08:22.260Z,1.54
2022-09-05T09:20:21.092Z,1.42
2022-09-05T09:32:21.565Z,1.62
2022-09-05T09:44:21.991Z,1.58
2022-09-05T09:56:22.506Z,1.57
2022-09-05T10:11:18.807Z,0.92
2022-09-05T10:20:28.686Z,1.70
2022-09-05T10:35:05.253Z,1.32
2022-09-05T10:44:24.324Z,1.18
2022-09-05T10:56:28.525Z,0.83
2022-09-05T11:08:25.219Z,0.35
2022-09-05T11:20:34.825Z,1.82
2022-09-05T11:39:46.035Z,1.67
2022-09-05T11:44:27.317Z,1.59
2022-09-05T11:56:28.729Z,1.00
2022-09-05T12:08:28.693Z,1.45
2022-09-05T12:20:27.970Z,0.88
2022-09-05T12:34:46.767Z,1.83
2022-09-05T12:44:41.359Z,0.85
2022-09-05T12:58:07.451Z,1.36
2022-09-05T13:08:29.819Z,1.48
2022-09-05T13:20:30.243Z,2.00
2022-09-05T13:37:59.532Z,0.81
2022-09-05T13:44:31.116Z,1.59
2022-09-05T13:56:31.631Z,1.17
2022-09-05T14:08:32.096Z,1.11
2022-09-05T14:20:32.524Z,1.08
2022-09-05T14:37:43.228Z,0.70
2022-09-05T14:44:33.478Z,1.57
2022-09-05T15:00:05.349Z,0.56
2022-09-05T15:11:24.726Z,0.32
2022-09-05T15:20:34.816Z,0.54
2022-09-05T15:32:35.256Z,0.71
2022-09-05T15:44:53.214Z,0.40
2022-09-05T15:56:36.200Z,0.70
2022-09-05T16:10:46.268Z,0.39
2022-09-05T16:23:26.369Z,0.22
2022-09-05T16:32:37.553Z,0.20
2022-09-05T16:44:38.196Z,0.18
2022-09-05T16:56:38.454Z,0.00
2022-09-05T17:08:38.950Z,0.07
2022-09-05T17:20:39.384Z,0.01
2022-09-05T17:32:39.850Z,0.03
2022-09-05T17:44:40.266Z,0.11
2022-09-05T17:56:40.759Z,0.01
2022-09-05T18:08:41.201Z,0.00
2022-09-05T18:20:41.644Z,0.02
2022-09-05T18:32:42.090Z,0.11
2022-09-05T18:44:42.579Z,0.04
2022-09-05T18:57:19.889Z,0.00
2022-09-05T19:08:43.491Z,0.23
2022-09-05T19:20:43.912Z,0.00
2022-09-05T19:36:53.600Z,0.03
2022-09-05T19:47:48.648Z,0.00
2022-09-05T19:56:45.311Z,0.00
2022-09-05T20:08:45.737Z,0.00
2022-09-05T20:20:46.221Z,0.00
2022-09-05T20:32:46.654Z,0.10
2022-09-05T20:44:47.109Z,0.12
2022-09-05T20:56:47.571Z,1.05
2022-09-05T21:08:48.051Z,0.08
2022-09-05T21:20:48.478Z,0.09
2022-09-05T21:32:48.939Z,0.78
2022-09-05T21:47:45.067Z,0.00
2022-09-05T21:59:19.174Z,0.00
2022-09-05T22:09:11.356Z,0.00
2022-09-05T22:21:02.929Z,0.00
2022-09-05T22:32:51.185Z,0.00
2022-09-05T22:44:51.689Z,0.00
2022-09-05T22:56:52.154Z,0.00
2022-09-05T23:08:52.569Z,0.00
2022-09-05T23:20:52.997Z,0.20
2022-09-05T23:32:53.509Z,0.29
2022-09-05T23:44:53.945Z,0.00
2022-09-05T23:56:54.380Z,0.00
